Flight Briefing for CPX205

Departure Arrival
Washington Dulles International Airport (KIAD)
Click to view FAA NOTAMS
Li├Ęge Airport (EBLG)
Click to view FAA NOTAMS
Departure Time Arrival Time
0300 UTC 0940 UTC
Aircraft Distance
B767-300BDSF 3422nm
Departure METAR Arrival METAR
KIAD 221152Z 30026G36KT 10SM BKN035 OVC045 07/00 A2963 RMK AO2 PK WND 31036/1147 SLP036 60000 70225 T00670000 10072 20050 53016 EBLG 221150Z VRB03KT CAVOK 17/00 Q1028 NOSIG
Suggested Route





View recent IFR Routes data
Notes



Charts and Procedures

Charts for KIAD
No chart available
Charts for EBLG
No chart available

Windy.com Weather Map